sensor_id;sensor_type;location;lat;lon;timestamp;temperature;humidity
74869;DHT22;63419;42.262;12.210;2023-05-07T00:00:03;13.20;99.90
74869;DHT22;63419;42.262;12.210;2023-05-07T00:02:34;13.20;99.90
74869;DHT22;63419;42.262;12.210;2023-05-07T00:05:02;13.30;99.90
74869;DHT22;63419;42.262;12.210;2023-05-07T00:07:30;13.30;99.90
74869;DHT22;63419;42.262;12.210;2023-05-07T00:09:57;13.40;99.90
74869;DHT22;63419;42.262;12.210;2023-05-07T00:12:24;13.10;99.90
74869;DHT22;63419;42.262;12.210;2023-05-07T00:14:52;12.10;99.90
74869;DHT22;63419;42.262;12.210;2023-05-07T00:17:19;12.00;99.90
74869;DHT22;63419;42.262;12.210;2023-05-07T00:19:46;12.00;99.90
74869;DHT22;63419;42.262;12.210;2023-05-07T00:22:13;12.20;99.90
74869;DHT22;63419;42.262;12.210;2023-05-07T00:24:40;12.20;99.90
74869;DHT22;63419;42.262;12.210;2023-05-07T00:27:07;12.10;99.90
74869;DHT22;63419;42.262;12.210;2023-05-07T00:29:34;12.10;99.90
74869;DHT22;63419;42.262;12.210;2023-05-07T00:32:02;12.20;99.90
74869;DHT22;63419;42.262;12.210;2023-05-07T00:34:29;12.20;99.90
74869;DHT22;63419;42.262;12.210;2023-05-07T00:36:56;12.20;99.90
74869;DHT22;63419;42.262;12.210;2023-05-07T00:39:24;12.30;99.90
74869;DHT22;63419;42.262;12.210;2023-05-07T00:41:51;12.30;99.90
74869;DHT22;63419;42.262;12.210;2023-05-07T00:44:19;12.40;99.90
74869;DHT22;63419;42.262;12.210;2023-05-07T00:46:46;12.50;99.90
74869;DHT22;63419;42.262;12.210;2023-05-07T00:49:18;12.60;99.90
74869;DHT22;63419;42.262;12.210;2023-05-07T00:51:46;12.70;99.90
74869;DHT22;63419;42.262;12.210;2023-05-07T00:54:13;12.70;99.90
74869;DHT22;63419;42.262;12.210;2023-05-07T00:56:40;12.80;99.90
74869;DHT22;63419;42.262;12.210;2023-05-07T00:59:08;12.80;99.90
74869;DHT22;63419;42.262;12.210;2023-05-07T01:01:35;12.90;99.90
74869;DHT22;63419;42.262;12.210;2023-05-07T01:04:03;13.00;99.90
74869;DHT22;63419;42.262;12.210;2023-05-07T01:06:31;12.90;99.90
74869;DHT22;63419;42.262;12.210;2023-05-07T01:08:59;13.00;99.90
74869;DHT22;63419;42.262;12.210;2023-05-07T01:11:27;13.00;99.90
74869;DHT22;63419;42.262;12.210;2023-05-07T01:13:54;12.90;99.90
74869;DHT22;63419;42.262;12.210;2023-05-07T01:16:21;12.80;99.90
74869;DHT22;63419;42.262;12.210;2023-05-07T01:18:49;12.70;99.90
74869;DHT22;63419;42.262;12.210;2023-05-07T01:21:17;12.70;99.90
74869;DHT22;63419;42.262;12.210;2023-05-07T01:23:45;12.80;99.90
74869;DHT22;63419;42.262;12.210;2023-05-07T01:26:13;12.80;99.90
74869;DHT22;63419;42.262;12.210;2023-05-07T01:28:40;12.80;99.90
74869;DHT22;63419;42.262;12.210;2023-05-07T01:31:08;12.70;99.90
74869;DHT22;63419;42.262;12.210;2023-05-07T01:33:36;12.60;99.90
74869;DHT22;63419;42.262;12.210;2023-05-07T01:36:05;12.40;99.90
74869;DHT22;63419;42.262;12.210;2023-05-07T01:38:34;12.30;99.90
74869;DHT22;63419;42.262;12.210;2023-05-07T01:41:03;12.40;99.90
74869;DHT22;63419;42.262;12.210;2023-05-07T01:43:30;12.30;99.90
74869;DHT22;63419;42.262;12.210;2023-05-07T01:45:57;12.50;99.90
74869;DHT22;63419;42.262;12.210;2023-05-07T01:48:25;12.60;99.90
74869;DHT22;63419;42.262;12.210;2023-05-07T01:50:53;11.30;99.90
74869;DHT22;63419;42.262;12.210;2023-05-07T01:53:20;11.30;99.90
74869;DHT22;63419;42.262;12.210;2023-05-07T01:55:47;11.40;99.90
74869;DHT22;63419;42.262;12.210;2023-05-07T01:58:14;11.60;99.90
74869;DHT22;63419;42.262;12.210;2023-05-07T02:00:41;11.80;99.90
74869;DHT22;63419;42.262;12.210;2023-05-07T02:03:08;12.00;99.90
74869;DHT22;63419;42.262;12.210;2023-05-07T02:05:35;12.20;99.90
74869;DHT22;63419;42.262;12.210;2023-05-07T02:08:02;12.40;99.90
74869;DHT22;63419;42.262;12.210;2023-05-07T02:10:29;12.60;99.90
74869;DHT22;63419;42.262;12.210;2023-05-07T02:12:56;12.80;99.90
74869;DHT22;63419;42.262;12.210;2023-05-07T02:15:24;12.90;99.90
74869;DHT22;63419;42.262;12.210;2023-05-07T02:17:58;12.90;99.90
74869;DHT22;63419;42.262;12.210;2023-05-07T02:20:25;12.90;99.90
74869;DHT22;63419;42.262;12.210;2023-05-07T02:22:52;12.50;99.90
74869;DHT22;63419;42.262;12.210;2023-05-07T02:25:19;12.30;99.90
74869;DHT22;63419;42.262;12.210;2023-05-07T02:27:47;12.30;99.90
74869;DHT22;63419;42.262;12.210;2023-05-07T02:30:14;12.30;99.90
74869;DHT22;63419;42.262;12.210;2023-05-07T02:32:41;12.30;99.90
74869;DHT22;63419;42.262;12.210;2023-05-07T02:35:08;12.30;99.90
74869;DHT22;63419;42.262;12.210;2023-05-07T02:37:35;12.30;99.90
74869;DHT22;63419;42.262;12.210;2023-05-07T02:40:03;12.30;99.90
74869;DHT22;63419;42.262;12.210;2023-05-07T02:42:31;12.30;99.90
74869;DHT22;63419;42.262;12.210;2023-05-07T02:44:58;12.20;99.90
74869;DHT22;63419;42.262;12.210;2023-05-07T02:47:25;12.20;99.90
74869;DHT22;63419;42.262;12.210;2023-05-07T02:49:55;12.20;99.90
74869;DHT22;63419;42.262;12.210;2023-05-07T02:52:22;12.20;99.90
74869;DHT22;63419;42.262;12.210;2023-05-07T02:54:49;12.20;99.90
74869;DHT22;63419;42.262;12.210;2023-05-07T02:57:16;12.20;99.90
74869;DHT22;63419;42.262;12.210;2023-05-07T02:59:43;12.20;99.90
74869;DHT22;63419;42.262;12.210;2023-05-07T03:02:10;12.10;99.90
74869;DHT22;63419;42.262;12.210;2023-05-07T03:04:38;12.00;99.90
74869;DHT22;63419;42.262;12.210;2023-05-07T03:07:05;12.00;99.90
74869;DHT22;63419;42.262;12.210;2023-05-07T03:09:32;11.80;99.90
74869;DHT22;63419;42.262;12.210;2023-05-07T03:11:59;11.40;99.90
74869;DHT22;63419;42.262;12.210;2023-05-07T03:14:26;11.20;99.90
74869;DHT22;63419;42.262;12.210;2023-05-07T03:16:53;11.10;99.90
74869;DHT22;63419;42.262;12.210;2023-05-07T03:19:21;11.10;99.90
74869;DHT22;63419;42.262;12.210;2023-05-07T03:21:48;11.00;99.90
74869;DHT22;63419;42.262;12.210;2023-05-07T03:24:15;11.00;99.90
74869;DHT22;63419;42.262;12.210;2023-05-07T03:26:42;10.80;99.90
74869;DHT22;63419;42.262;12.210;2023-05-07T03:29:09;10.70;99.90
74869;DHT22;63419;42.262;12.210;2023-05-07T03:31:36;10.40;99.90
74869;DHT22;63419;42.262;12.210;2023-05-07T03:34:03;10.30;99.90
74869;DHT22;63419;42.262;12.210;2023-05-07T03:36:30;10.30;99.90
74869;DHT22;63419;42.262;12.210;2023-05-07T03:38:57;10.20;99.90
74869;DHT22;63419;42.262;12.210;2023-05-07T03:41:24;10.20;99.90
74869;DHT22;63419;42.262;12.210;2023-05-07T03:43:52;10.10;99.90
74869;DHT22;63419;42.262;12.210;2023-05-07T03:46:19;10.20;99.90
74869;DHT22;63419;42.262;12.210;2023-05-07T03:48:46;10.10;99.90
74869;DHT22;63419;42.262;12.210;2023-05-07T03:51:13;10.10;99.90
74869;DHT22;63419;42.262;12.210;2023-05-07T03:53:40;10.10;99.90
74869;DHT22;63419;42.262;12.210;2023-05-07T03:56:07;10.10;99.90
74869;DHT22;63419;42.262;12.210;2023-05-07T03:58:34;10.10;99.90
74869;DHT22;63419;42.262;12.210;2023-05-07T04:01:01;10.20;99.90
74869;DHT22;63419;42.262;12.210;2023-05-07T04:03:29;10.20;99.90
74869;DHT22;63419;42.262;12.210;2023-05-07T04:05:56;10.10;99.90
74869;DHT22;63419;42.262;12.210;2023-05-07T04:08:23;9.90;99.90
74869;DHT22;63419;42.262;12.210;2023-05-07T04:10:55;9.90;99.90
74869;DHT22;63419;42.262;12.210;2023-05-07T04:13:22;9.90;99.90
74869;DHT22;63419;42.262;12.210;2023-05-07T04:15:49;9.90;99.90
74869;DHT22;63419;42.262;12.210;2023-05-07T04:18:16;9.90;99.90
74869;DHT22;63419;42.262;12.210;2023-05-07T04:20:43;9.90;99.90
74869;DHT22;63419;42.262;12.210;2023-05-07T04:23:10;9.90;99.90
74869;DHT22;63419;42.262;12.210;2023-05-07T04:25:37;9.80;99.90
74869;DHT22;63419;42.262;12.210;2023-05-07T04:28:04;9.80;99.90
74869;DHT22;63419;42.262;12.210;2023-05-07T04:30:31;9.70;99.90
74869;DHT22;63419;42.262;12.210;2023-05-07T04:32:58;9.80;99.90
74869;DHT22;63419;42.262;12.210;2023-05-07T04:35:25;9.90;99.90
74869;DHT22;63419;42.262;12.210;2023-05-07T04:37:53;9.90;99.90
74869;DHT22;63419;42.262;12.210;2023-05-07T04:40:20;10.00;99.90
74869;DHT22;63419;42.262;12.210;2023-05-07T04:42:47;10.10;99.90
74869;DHT22;63419;42.262;12.210;2023-05-07T04:45:14;10.20;99.90
74869;DHT22;63419;42.262;12.210;2023-05-07T04:47:41;10.10;99.90
74869;DHT22;63419;42.262;12.210;2023-05-07T04:50:09;10.10;99.90
74869;DHT22;63419;42.262;12.210;2023-05-07T04:52:36;10.10;99.90
74869;DHT22;63419;42.262;12.210;2023-05-07T04:55:03;10.20;99.90
74869;DHT22;63419;42.262;12.210;2023-05-07T04:57:31;10.30;99.90
74869;DHT22;63419;42.262;12.210;2023-05-07T04:59:58;10.50;99.90
74869;DHT22;63419;42.262;12.210;2023-05-07T05:02:25;10.60;99.90
74869;DHT22;63419;42.262;12.210;2023-05-07T05:04:51;10.70;99.90
74869;DHT22;63419;42.262;12.210;2023-05-07T05:07:18;10.90;99.90
74869;DHT22;63419;42.262;12.210;2023-05-07T05:09:45;10.90;99.90
74869;DHT22;63419;42.262;12.210;2023-05-07T05:12:12;10.80;99.90
74869;DHT22;63419;42.262;12.210;2023-05-07T05:14:39;11.00;99.90
74869;DHT22;63419;42.262;12.210;2023-05-07T05:17:06;11.20;99.90
74869;DHT22;63419;42.262;12.210;2023-05-07T05:19:33;11.40;99.90
74869;DHT22;63419;42.262;12.210;2023-05-07T05:22:00;11.60;99.90
74869;DHT22;63419;42.262;12.210;2023-05-07T05:24:27;11.20;99.90
74869;DHT22;63419;42.262;12.210;2023-05-07T05:26:54;11.40;99.90
74869;DHT22;63419;42.262;12.210;2023-05-07T05:29:21;11.60;99.90
74869;DHT22;63419;42.262;12.210;2023-05-07T05:31:48;11.90;99.90
74869;DHT22;63419;42.262;12.210;2023-05-07T05:34:15;12.00;99.90
74869;DHT22;63419;42.262;12.210;2023-05-07T05:36:43;12.30;99.90
74869;DHT22;63419;42.262;12.210;2023-05-07T05:39:10;12.20;99.90
74869;DHT22;63419;42.262;12.210;2023-05-07T05:41:37;12.50;99.90
74869;DHT22;63419;42.262;12.210;2023-05-07T05:44:04;12.70;99.90
74869;DHT22;63419;42.262;12.210;2023-05-07T05:46:31;13.00;99.90
74869;DHT22;63419;42.262;12.210;2023-05-07T05:49:01;13.20;99.90
74869;DHT22;63419;42.262;12.210;2023-05-07T05:51:28;13.50;99.90
74869;DHT22;63419;42.262;12.210;2023-05-07T05:53:55;13.70;99.90
74869;DHT22;63419;42.262;12.210;2023-05-07T05:56:22;13.90;99.90
74869;DHT22;63419;42.262;12.210;2023-05-07T05:58:49;14.00;99.90
74869;DHT22;63419;42.262;12.210;2023-05-07T06:01:17;14.20;99.90
74869;DHT22;63419;42.262;12.210;2023-05-07T06:03:44;14.40;99.90
74869;DHT22;63419;42.262;12.210;2023-05-07T06:06:11;14.70;99.90
74869;DHT22;63419;42.262;12.210;2023-05-07T06:08:38;14.90;99.90
74869;DHT22;63419;42.262;12.210;2023-05-07T06:11:05;15.10;99.90
74869;DHT22;63419;42.262;12.210;2023-05-07T06:13:32;15.30;99.90
74869;DHT22;63419;42.262;12.210;2023-05-07T06:15:59;15.40;99.90
74869;DHT22;63419;42.262;12.210;2023-05-07T06:18:26;15.60;99.90
74869;DHT22;63419;42.262;12.210;2023-05-07T06:20:53;15.60;99.90
74869;DHT22;63419;42.262;12.210;2023-05-07T06:23:20;15.60;99.90
74869;DHT22;63419;42.262;12.210;2023-05-07T06:25:50;15.70;99.90
74869;DHT22;63419;42.262;12.210;2023-05-07T06:28:17;15.90;99.90
74869;DHT22;63419;42.262;12.210;2023-05-07T06:30:44;16.00;99.90
74869;DHT22;63419;42.262;12.210;2023-05-07T06:33:11;16.10;99.90
74869;DHT22;63419;42.262;12.210;2023-05-07T06:35:38;16.10;99.90
74869;DHT22;63419;42.262;12.210;2023-05-07T06:38:05;16.10;99.90
74869;DHT22;63419;42.262;12.210;2023-05-07T06:40:32;16.20;99.90
74869;DHT22;63419;42.262;12.210;2023-05-07T06:42:59;16.20;99.90
74869;DHT22;63419;42.262;12.210;2023-05-07T06:45:26;16.40;99.90
74869;DHT22;63419;42.262;12.210;2023-05-07T06:47:53;16.40;99.90
74869;DHT22;63419;42.262;12.210;2023-05-07T06:50:20;16.60;99.90
74869;DHT22;63419;42.262;12.210;2023-05-07T06:52:47;16.70;99.90
74869;DHT22;63419;42.262;12.210;2023-05-07T06:55:14;16.80;99.90
74869;DHT22;63419;42.262;12.210;2023-05-07T06:57:42;16.80;99.90
74869;DHT22;63419;42.262;12.210;2023-05-07T07:00:10;16.90;99.90
74869;DHT22;63419;42.262;12.210;2023-05-07T07:02:37;17.00;99.90
74869;DHT22;63419;42.262;12.210;2023-05-07T07:05:05;17.10;99.90
74869;DHT22;63419;42.262;12.210;2023-05-07T07:07:32;17.20;99.90
74869;DHT22;63419;42.262;12.210;2023-05-07T07:09:59;17.50;99.90
74869;DHT22;63419;42.262;12.210;2023-05-07T07:12:26;17.60;99.90
74869;DHT22;63419;42.262;12.210;2023-05-07T07:14:53;17.70;99.90
74869;DHT22;63419;42.262;12.210;2023-05-07T07:17:20;17.70;99.90
74869;DHT22;63419;42.262;12.210;2023-05-07T07:19:47;17.80;99.90
74869;DHT22;63419;42.262;12.210;2023-05-07T07:22:14;17.90;99.90
74869;DHT22;63419;42.262;12.210;2023-05-07T07:24:41;18.00;99.90
74869;DHT22;63419;42.262;12.210;2023-05-07T07:27:08;18.20;99.90
74869;DHT22;63419;42.262;12.210;2023-05-07T07:29:35;18.30;99.90
74869;DHT22;63419;42.262;12.210;2023-05-07T07:32:02;18.40;99.90
74869;DHT22;63419;42.262;12.210;2023-05-07T07:34:29;18.50;99.90
74869;DHT22;63419;42.262;12.210;2023-05-07T07:36:56;18.70;99.90
74869;DHT22;63419;42.262;12.210;2023-05-07T07:39:23;18.90;99.90
74869;DHT22;63419;42.262;12.210;2023-05-07T07:41:50;18.90;99.90
74869;DHT22;63419;42.262;12.210;2023-05-07T07:44:17;18.90;99.90
74869;DHT22;63419;42.262;12.210;2023-05-07T07:46:44;19.00;99.90
74869;DHT22;63419;42.262;12.210;2023-05-07T07:49:11;19.00;99.90
74869;DHT22;63419;42.262;12.210;2023-05-07T07:51:38;19.20;99.90
74869;DHT22;63419;42.262;12.210;2023-05-07T07:54:05;19.40;99.90
74869;DHT22;63419;42.262;12.210;2023-05-07T07:56:32;19.50;99.90
74869;DHT22;63419;42.262;12.210;2023-05-07T07:59:02;19.80;99.90
74869;DHT22;63419;42.262;12.210;2023-05-07T08:01:32;20.20;99.90
74869;DHT22;63419;42.262;12.210;2023-05-07T08:03:59;20.30;99.90
74869;DHT22;63419;42.262;12.210;2023-05-07T08:06:26;20.10;99.90
74869;DHT22;63419;42.262;12.210;2023-05-07T08:08:53;20.50;99.90
74869;DHT22;63419;42.262;12.210;2023-05-07T08:11:20;20.60;99.90
74869;DHT22;63419;42.262;12.210;2023-05-07T08:13:48;20.50;99.90
74869;DHT22;63419;42.262;12.210;2023-05-07T08:16:15;20.20;99.90
74869;DHT22;63419;42.262;12.210;2023-05-07T08:18:42;20.20;99.90
74869;DHT22;63419;42.262;12.210;2023-05-07T08:21:09;20.30;99.90
74869;DHT22;63419;42.262;12.210;2023-05-07T08:23:36;20.60;99.90
74869;DHT22;63419;42.262;12.210;2023-05-07T08:26:03;20.70;99.90
74869;DHT22;63419;42.262;12.210;2023-05-07T08:28:30;20.70;99.90
74869;DHT22;63419;42.262;12.210;2023-05-07T08:30:57;20.90;99.90
74869;DHT22;63419;42.262;12.210;2023-05-07T08:33:26;21.10;99.90
74869;DHT22;63419;42.262;12.210;2023-05-07T08:35:53;21.10;99.90
74869;DHT22;63419;42.262;12.210;2023-05-07T08:38:20;21.00;99.90
74869;DHT22;63419;42.262;12.210;2023-05-07T08:40:48;21.20;99.90
74869;DHT22;63419;42.262;12.210;2023-05-07T08:43:15;21.60;99.90
74869;DHT22;63419;42.262;12.210;2023-05-07T08:45:42;21.70;99.90
74869;DHT22;63419;42.262;12.210;2023-05-07T08:48:16;21.70;99.90
74869;DHT22;63419;42.262;12.210;2023-05-07T08:50:43;21.80;99.90
74869;DHT22;63419;42.262;12.210;2023-05-07T08:53:10;21.80;99.90
74869;DHT22;63419;42.262;12.210;2023-05-07T08:55:37;21.60;99.90
74869;DHT22;63419;42.262;12.210;2023-05-07T08:58:04;21.50;99.90
74869;DHT22;63419;42.262;12.210;2023-05-07T09:00:32;21.80;99.90
74869;DHT22;63419;42.262;12.210;2023-05-07T09:03:00;22.20;99.90
74869;DHT22;63419;42.262;12.210;2023-05-07T09:05:27;22.10;99.90
74869;DHT22;63419;42.262;12.210;2023-05-07T09:07:54;22.10;99.90
74869;DHT22;63419;42.262;12.210;2023-05-07T09:10:24;22.10;99.90
74869;DHT22;63419;42.262;12.210;2023-05-07T09:12:52;22.30;99.90
74869;DHT22;63419;42.262;12.210;2023-05-07T09:15:19;22.40;99.90
74869;DHT22;63419;42.262;12.210;2023-05-07T09:17:46;21.40;99.90
74869;DHT22;63419;42.262;12.210;2023-05-07T09:20:13;21.30;99.90
74869;DHT22;63419;42.262;12.210;2023-05-07T09:22:40;21.40;99.90
74869;DHT22;63419;42.262;12.210;2023-05-07T09:25:08;21.70;99.90
74869;DHT22;63419;42.262;12.210;2023-05-07T09:27:36;22.10;99.90
74869;DHT22;63419;42.262;12.210;2023-05-07T09:30:05;22.10;99.90
74869;DHT22;63419;42.262;12.210;2023-05-07T09:32:36;21.80;99.90
74869;DHT22;63419;42.262;12.210;2023-05-07T09:35:15;21.70;99.90
74869;DHT22;63419;42.262;12.210;2023-05-07T09:37:43;21.50;99.90
74869;DHT22;63419;42.262;12.210;2023-05-07T09:40:24;21.70;99.90
74869;DHT22;63419;42.262;12.210;2023-05-07T09:42:51;21.30;99.90
74869;DHT22;63419;42.262;12.210;2023-05-07T09:47:49;21.80;99.90
74869;DHT22;63419;42.262;12.210;2023-05-07T09:50:26;22.40;99.90
74869;DHT22;63419;42.262;12.210;2023-05-07T09:52:54;22.70;99.90
74869;DHT22;63419;42.262;12.210;2023-05-07T09:55:22;22.80;99.90
74869;DHT22;63419;42.262;12.210;2023-05-07T09:57:50;23.70;99.90
74869;DHT22;63419;42.262;12.210;2023-05-07T10:00:21;23.90;99.60
74869;DHT22;63419;42.262;12.210;2023-05-07T10:02:50;24.50;99.00
74869;DHT22;63419;42.262;12.210;2023-05-07T10:05:19;23.50;99.90
74869;DHT22;63419;42.262;12.210;2023-05-07T10:07:50;22.80;99.90
74869;DHT22;63419;42.262;12.210;2023-05-07T10:10:17;24.10;99.90
74869;DHT22;63419;42.262;12.210;2023-05-07T10:12:45;24.40;99.90
74869;DHT22;63419;42.262;12.210;2023-05-07T10:15:12;23.40;99.90
74869;DHT22;63419;42.262;12.210;2023-05-07T10:17:40;23.40;99.90
74869;DHT22;63419;42.262;12.210;2023-05-07T10:20:08;22.70;99.90
74869;DHT22;63419;42.262;12.210;2023-05-07T10:22:45;22.90;99.90
74869;DHT22;63419;42.262;12.210;2023-05-07T10:25:25;23.40;99.90
74869;DHT22;63419;42.262;12.210;2023-05-07T10:27:53;23.50;99.90
74869;DHT22;63419;42.262;12.210;2023-05-07T10:30:40;24.30;99.90
74869;DHT22;63419;42.262;12.210;2023-05-07T10:33:13;24.10;99.90
74869;DHT22;63419;42.262;12.210;2023-05-07T10:35:43;22.90;99.90
74869;DHT22;63419;42.262;12.210;2023-05-07T10:38:10;23.10;99.90
74869;DHT22;63419;42.262;12.210;2023-05-07T10:40:38;23.10;99.90
74869;DHT22;63419;42.262;12.210;2023-05-07T10:43:05;22.80;99.90
74869;DHT22;63419;42.262;12.210;2023-05-07T10:45:36;22.70;99.90
74869;DHT22;63419;42.262;12.210;2023-05-07T10:51:21;24.10;99.90
74869;DHT22;63419;42.262;12.210;2023-05-07T10:56:43;23.30;99.90
74869;DHT22;63419;42.262;12.210;2023-05-07T11:02:04;23.80;99.90
74869;DHT22;63419;42.262;12.210;2023-05-07T11:04:33;23.30;99.90
74869;DHT22;63419;42.262;12.210;2023-05-07T11:09:55;23.40;99.90
74869;DHT22;63419;42.262;12.210;2023-05-07T11:15:15;23.70;99.90
74869;DHT22;63419;42.262;12.210;2023-05-07T11:17:58;24.50;99.90
74869;DHT22;63419;42.262;12.210;2023-05-07T11:20:48;25.00;99.90
74869;DHT22;63419;42.262;12.210;2023-05-07T11:26:06;25.30;99.80
74869;DHT22;63419;42.262;12.210;2023-05-07T11:28:41;25.40;99.70
74869;DHT22;63419;42.262;12.210;2023-05-07T11:31:09;26.90;98.20
74869;DHT22;63419;42.262;12.210;2023-05-07T11:33:37;26.40;97.40
74869;DHT22;63419;42.262;12.210;2023-05-07T11:36:05;28.30;97.90
74869;DHT22;63419;42.262;12.210;2023-05-07T11:38:37;28.70;97.60
74869;DHT22;63419;42.262;12.210;2023-05-07T11:41:34;28.50;98.10
74869;DHT22;63419;42.262;12.210;2023-05-07T11:44:01;28.00;97.50
74869;DHT22;63419;42.262;12.210;2023-05-07T11:46:29;25.20;98.70
74869;DHT22;63419;42.262;12.210;2023-05-07T11:48:56;24.40;99.90
74869;DHT22;63419;42.262;12.210;2023-05-07T11:51:24;23.80;99.90
74869;DHT22;63419;42.262;12.210;2023-05-07T11:53:53;25.40;99.70
74869;DHT22;63419;42.262;12.210;2023-05-07T11:56:20;26.80;98.80
74869;DHT22;63419;42.262;12.210;2023-05-07T11:58:48;25.50;99.60
74869;DHT22;63419;42.262;12.210;2023-05-07T12:01:16;23.50;99.90
74869;DHT22;63419;42.262;12.210;2023-05-07T12:03:45;24.50;99.90
74869;DHT22;63419;42.262;12.210;2023-05-07T12:06:15;27.70;99.90
74869;DHT22;63419;42.262;12.210;2023-05-07T12:08:43;27.40;99.90
74869;DHT22;63419;42.262;12.210;2023-05-07T12:11:15;28.00;99.90
74869;DHT22;63419;42.262;12.210;2023-05-07T12:13:44;25.70;99.70
74869;DHT22;63419;42.262;12.210;2023-05-07T12:16:11;25.00;99.90
74869;DHT22;63419;42.262;12.210;2023-05-07T12:18:39;24.70;99.90
74869;DHT22;63419;42.262;12.210;2023-05-07T12:21:06;24.10;99.90
74869;DHT22;63419;42.262;12.210;2023-05-07T12:23:35;24.50;99.90
74869;DHT22;63419;42.262;12.210;2023-05-07T12:26:04;24.90;99.90
74869;DHT22;63419;42.262;12.210;2023-05-07T12:28:37;24.00;99.90
74869;DHT22;63419;42.262;12.210;2023-05-07T12:31:05;25.80;99.90
74869;DHT22;63419;42.262;12.210;2023-05-07T12:33:33;25.30;99.90
74869;DHT22;63419;42.262;12.210;2023-05-07T12:36:04;26.20;99.90
74869;DHT22;63419;42.262;12.210;2023-05-07T12:38:39;27.40;99.90
74869;DHT22;63419;42.262;12.210;2023-05-07T12:41:09;26.20;99.90
74869;DHT22;63419;42.262;12.210;2023-05-07T12:43:36;24.10;99.90
74869;DHT22;63419;42.262;12.210;2023-05-07T12:46:06;25.80;99.90
74869;DHT22;63419;42.262;12.210;2023-05-07T12:48:36;25.40;99.90
74869;DHT22;63419;42.262;12.210;2023-05-07T12:51:05;27.00;99.90
74869;DHT22;63419;42.262;12.210;2023-05-07T12:53:32;27.20;99.90
74869;DHT22;63419;42.262;12.210;2023-05-07T12:55:59;28.70;99.90
74869;DHT22;63419;42.262;12.210;2023-05-07T12:58:29;27.60;99.90
74869;DHT22;63419;42.262;12.210;2023-05-07T13:00:58;25.70;99.90
74869;DHT22;63419;42.262;12.210;2023-05-07T13:03:34;25.70;99.90
74869;DHT22;63419;42.262;12.210;2023-05-07T13:06:09;27.40;99.90
74869;DHT22;63419;42.262;12.210;2023-05-07T13:08:38;26.50;99.90
74869;DHT22;63419;42.262;12.210;2023-05-07T13:11:12;25.60;99.90
74869;DHT22;63419;42.262;12.210;2023-05-07T13:13:40;26.60;99.90
74869;DHT22;63419;42.262;12.210;2023-05-07T13:16:10;26.20;99.90
74869;DHT22;63419;42.262;12.210;2023-05-07T13:18:39;25.80;99.90
74869;DHT22;63419;42.262;12.210;2023-05-07T13:21:07;25.00;99.90
74869;DHT22;63419;42.262;12.210;2023-05-07T13:23:34;26.50;99.90
74869;DHT22;63419;42.262;12.210;2023-05-07T13:26:01;26.50;99.90
74869;DHT22;63419;42.262;12.210;2023-05-07T13:28:40;27.40;99.90
74869;DHT22;63419;42.262;12.210;2023-05-07T13:31:07;27.40;99.90
74869;DHT22;63419;42.262;12.210;2023-05-07T13:33:34;24.70;99.90
74869;DHT22;63419;42.262;12.210;2023-05-07T13:36:02;24.10;99.90
74869;DHT22;63419;42.262;12.210;2023-05-07T13:38:31;23.70;99.90
74869;DHT22;63419;42.262;12.210;2023-05-07T13:40:58;24.40;99.90
74869;DHT22;63419;42.262;12.210;2023-05-07T13:43:25;25.00;99.90
74869;DHT22;63419;42.262;12.210;2023-05-07T13:45:52;23.30;99.90
74869;DHT22;63419;42.262;12.210;2023-05-07T13:48:19;23.10;99.90
74869;DHT22;63419;42.262;12.210;2023-05-07T13:50:46;23.80;99.90
74869;DHT22;63419;42.262;12.210;2023-05-07T13:53:13;24.80;99.90
74869;DHT22;63419;42.262;12.210;2023-05-07T13:55:42;25.40;99.90
74869;DHT22;63419;42.262;12.210;2023-05-07T13:58:09;23.70;99.90
74869;DHT22;63419;42.262;12.210;2023-05-07T14:00:36;23.20;99.90
74869;DHT22;63419;42.262;12.210;2023-05-07T14:03:04;23.70;99.90
74869;DHT22;63419;42.262;12.210;2023-05-07T14:05:32;23.40;99.90
74869;DHT22;63419;42.262;12.210;2023-05-07T14:07:59;23.60;99.90
74869;DHT22;63419;42.262;12.210;2023-05-07T14:10:26;24.20;99.90
74869;DHT22;63419;42.262;12.210;2023-05-07T14:12:53;22.90;99.90
74869;DHT22;63419;42.262;12.210;2023-05-07T14:15:21;22.90;99.90
74869;DHT22;63419;42.262;12.210;2023-05-07T14:17:48;23.90;99.90
74869;DHT22;63419;42.262;12.210;2023-05-07T14:20:15;23.20;99.90
74869;DHT22;63419;42.262;12.210;2023-05-07T14:22:42;23.50;99.90
74869;DHT22;63419;42.262;12.210;2023-05-07T14:25:09;24.00;99.90
74869;DHT22;63419;42.262;12.210;2023-05-07T14:27:39;24.30;99.90
74869;DHT22;63419;42.262;12.210;2023-05-07T14:30:07;24.60;99.90
74869;DHT22;63419;42.262;12.210;2023-05-07T14:32:34;23.20;99.90
74869;DHT22;63419;42.262;12.210;2023-05-07T14:35:01;23.20;99.90
74869;DHT22;63419;42.262;12.210;2023-05-07T14:37:28;23.10;99.90
74869;DHT22;63419;42.262;12.210;2023-05-07T14:39:55;24.60;99.90
74869;DHT22;63419;42.262;12.210;2023-05-07T14:42:22;22.90;99.90
74869;DHT22;63419;42.262;12.210;2023-05-07T14:44:49;22.70;99.90
74869;DHT22;63419;42.262;12.210;2023-05-07T14:47:16;22.70;99.90
74869;DHT22;63419;42.262;12.210;2023-05-07T14:49:45;23.00;99.90
74869;DHT22;63419;42.262;12.210;2023-05-07T14:52:12;23.70;99.90
74869;DHT22;63419;42.262;12.210;2023-05-07T14:54:39;24.00;99.90
74869;DHT22;63419;42.262;12.210;2023-05-07T14:57:10;23.20;99.90
74869;DHT22;63419;42.262;12.210;2023-05-07T14:59:38;22.60;99.90
74869;DHT22;63419;42.262;12.210;2023-05-07T15:02:09;22.20;99.90
74869;DHT22;63419;42.262;12.210;2023-05-07T15:04:37;22.10;99.90
74869;DHT22;63419;42.262;12.210;2023-05-07T15:07:05;22.00;99.90
74869;DHT22;63419;42.262;12.210;2023-05-07T15:09:31;21.50;99.90
74869;DHT22;63419;42.262;12.210;2023-05-07T15:11:58;22.20;99.90
74869;DHT22;63419;42.262;12.210;2023-05-07T15:14:25;22.70;99.90
74869;DHT22;63419;42.262;12.210;2023-05-07T15:16:52;23.00;99.90
74869;DHT22;63419;42.262;12.210;2023-05-07T15:19:19;21.90;99.90
74869;DHT22;63419;42.262;12.210;2023-05-07T15:21:49;22.00;99.90
74869;DHT22;63419;42.262;12.210;2023-05-07T15:24:16;22.80;99.90
74869;DHT22;63419;42.262;12.210;2023-05-07T15:26:42;22.00;99.90
74869;DHT22;63419;42.262;12.210;2023-05-07T15:29:09;21.10;99.90
74869;DHT22;63419;42.262;12.210;2023-05-07T15:31:37;22.20;99.90
74869;DHT22;63419;42.262;12.210;2023-05-07T15:34:06;23.10;99.90
74869;DHT22;63419;42.262;12.210;2023-05-07T15:36:33;21.80;99.90
74869;DHT22;63419;42.262;12.210;2023-05-07T15:39:00;21.50;99.90
74869;DHT22;63419;42.262;12.210;2023-05-07T15:41:28;22.10;99.90